This is the latest recevied weather packets stored in our database for station/object N0HOT. If no packets are shown the sender has not sent any weather packets the latest 10 day(s).
| Time | Temp. | Humidity | Pressure | Rain* | Wind** | Luminosity | Snow |
|---|---|---|---|---|---|---|---|
| 1788111708 | 26.11° C | 64% | 1010.1 hPa | 0 mm | - | 219 W/m² | - |
| 1788111408 | 26.11° C | 67% | 1010.1 hPa | 0 mm | - | 196 W/m² | - |
| 1788111103 | 26.11° C | 68% | 1010.5 hPa | 0 mm | - | 195 W/m² | - |
| 1788110800 | 26.11° C | 67% | 1010.8 hPa | 0 mm | - | 152 W/m² | - |
| 1788110497 | 26.11° C | 68% | 1010.8 hPa | 0 mm | - | 123 W/m² | - |
| 1788110196 | 26.11° C | 66% | 1010.8 hPa | 0 mm | - | 101 W/m² | - |
| 1788109891 | 26.11° C | 69% | 1011.1 hPa | 0 mm | - | 85 W/m² | - |
| 1788109586 | 25.56° C | 67% | 1011.5 hPa | 0 mm | - | 100 W/m² | - |
| 1788109285 | 25.56° C | 67% | 1011.1 hPa | 0 mm | - | 130 W/m² | - |
| 1788108980 | 26.11° C | 66% | 1011.1 hPa | 0 mm | - | 133 W/m² | - |
| 1788108680 | 26.11° C | 67% | 1011.1 hPa | 0 mm | - | 135 W/m² | - |
| 1788108372 | 26.11° C | 68% | 1011.1 hPa | 0 mm | - | 139 W/m² | - |
| 1788108067 | 26.11° C | 70% | 1011.1 hPa | 0 mm | - | 133 W/m² | - |
| 1788107764 | 26.67° C | 71% | 1011.1 hPa | 0 mm | - | 98 W/m² | - |
| 1788107464 | 27.22° C | 69% | 1010.5 hPa | 0 mm | - | 67 W/m² | - |
| 1788107159 | 27.22° C | 65% | 1010.5 hPa | 0 mm | - | 71 W/m² | - |
| 1788106855 | 27.22° C | 66% | 1010.5 hPa | 0 mm | - | 98 W/m² | - |
| 1788106555 | 27.22° C | 65% | 1010.1 hPa | 0 mm | - | 111 W/m² | - |
| 1788106250 | 27.22° C | 64% | 1009.8 hPa | 0 mm | - | 117 W/m² | - |
| 1788105945 | 27.22° C | 63% | 1009.8 hPa | 0 mm | - | 127 W/m² | - |
| 1788105640 | 26.67° C | 63% | 1009.8 hPa | 0 mm | - | 194 W/m² | - |
| 1788105337 | 26.11° C | 62% | 1009.8 hPa | 0 mm | - | 371 W/m² | - |
| 1788105032 | 26.11° C | 64% | 1009.8 hPa | 0 mm | - | 257 W/m² | - |
| 1788104727 | 25.56° C | 67% | 1009.4 hPa | 0 mm | - | 421 W/m² | - |
| 1788104423 | 25.56° C | 68% | 1009.4 hPa | 0 mm | - | 243 W/m² | - |
* Rain latest hour (hover to see other rain measurements)
** Current wind speed in m/s (hover to see current wind gust speed)